Terminal Aerodrome Forecast
Issued by NWS North Platte, NE

Home | Current Version | Previous Version | Text Only | Print | Product List | Glossary Off
Versions: 1 2 3 4 5 6 7 8 9 10 11 12 13 14 15 16 17 18 19 20

909
FTUS43 KLBF 230828 AAA
TAFVTN
TAF AMD
KVTN 230828Z 2308/2406 05012KT 4SM -SN OVC004
     FM231200 04015G23KT 2SM -SN BLSN OVC004
     FM231600 04017G24KT 1/2SM SN BLSN VV004=

USA.gov is the U.S. government's official web portal to all federal, state and local government web resources and services.